Time;durP1;ratioP1;P1;durP2;ratioP2;P2;SDS_P1;SDS_P2;PMS_P1;PMS_P2;Temp;Humidity;BMP_temperature;BMP_pressure;BME280_temperature;BME280_humidity;BME280_pressure;Samples;Min_cycle;Max_cycle;Signal;HPM_P1;HPM_P2
2021/11/10 00:00:22;;;;;;;13.77;6.80;;;3.00;99.90;;;;;;5011722;28;20038;-66
2021/11/10 00:02:50;;;;;;;13.63;7.07;;;3.00;99.90;;;;;;5011214;28;20117;-66
2021/11/10 00:05:17;;;;;;;11.57;6.78;;;3.00;99.90;;;;;;5009663;28;20177;-65
2021/11/10 00:07:45;;;;;;;15.82;7.20;;;3.00;99.90;;;;;;5010958;28;20096;-65
2021/11/10 00:10:15;;;;;;;15.57;7.60;;;2.90;99.90;;;;;;5011173;28;20120;-66
2021/11/10 00:12:43;;;;;;;14.93;7.35;;;2.90;99.90;;;;;;5011089;28;20069;-67
2021/11/10 00:15:12;;;;;;;14.05;6.50;;;2.90;99.90;;;;;;5010953;28;20046;-65
2021/11/10 00:17:40;;;;;;;13.20;6.30;;;2.90;99.90;;;;;;5011050;28;20038;-65
2021/11/10 00:20:10;;;;;;;12.40;7.25;;;2.90;99.90;;;;;;5009430;28;20469;-66
2021/11/10 00:22:39;;;;;;;10.70;6.70;;;2.90;99.90;;;;;;5005126;28;20065;-66
2021/11/10 00:25:09;;;;;;;12.88;7.20;;;2.90;99.90;;;;;;5011136;28;20068;-66
2021/11/10 00:27:37;;;;;;;11.10;6.90;;;2.90;99.90;;;;;;5006194;28;20116;-65
2021/11/10 00:30:05;;;;;;;13.00;7.18;;;2.90;99.90;;;;;;5009749;28;20117;-66
2021/11/10 00:32:32;;;;;;;11.43;6.30;;;2.90;99.90;;;;;;5025966;28;20042;-65
2021/11/10 00:35:00;;;;;;;14.85;7.32;;;2.90;99.90;;;;;;5026050;28;20108;-66
2021/11/10 00:37:27;;;;;;;11.35;6.28;;;2.90;99.90;;;;;;5010865;28;20282;-67
2021/11/10 00:39:55;;;;;;;15.40;6.65;;;2.80;99.90;;;;;;5009017;28;20049;-66
2021/11/10 00:42:22;;;;;;;10.77;6.70;;;2.80;99.90;;;;;;5009061;28;20033;-65
2021/11/10 00:44:49;;;;;;;11.00;6.78;;;2.80;99.90;;;;;;5010089;28;20058;-66
2021/11/10 00:47:16;;;;;;;9.95;6.35;;;2.80;99.90;;;;;;5025891;28;20493;-65
2021/11/10 00:49:44;;;;;;;11.70;6.30;;;2.80;99.90;;;;;;5004226;28;20043;-65
2021/11/10 00:52:11;;;;;;;11.20;6.25;;;2.80;99.90;;;;;;5008517;28;20125;-65
2021/11/10 00:54:38;;;;;;;13.25;6.72;;;2.70;99.90;;;;;;4997938;28;20045;-65
2021/11/10 00:57:05;;;;;;;14.90;7.57;;;2.70;99.90;;;;;;5025430;28;20400;-65
2021/11/10 00:59:33;;;;;;;18.63;8.02;;;2.70;99.90;;;;;;5025793;28;20120;-66
2021/11/10 01:02:01;;;;;;;12.43;7.60;;;2.60;99.90;;;;;;5006103;28;20058;-66
2021/11/10 01:04:28;;;;;;;12.40;7.75;;;2.60;99.90;;;;;;4990972;28;20054;-65
2021/11/10 01:06:56;;;;;;;12.55;7.30;;;2.60;99.90;;;;;;5008060;28;20100;-65
2021/11/10 01:09:24;;;;;;;11.88;6.85;;;2.60;99.90;;;;;;5023604;28;20038;-65
2021/11/10 01:11:51;;;;;;;11.82;7.18;;;2.60;99.90;;;;;;5009921;28;20092;-65
2021/11/10 01:14:19;;;;;;;12.55;6.60;;;2.60;99.90;;;;;;5010533;28;20539;-66
2021/11/10 01:16:49;;;;;;;11.32;7.07;;;2.60;99.90;;;;;;5007153;28;20112;-66
2021/11/10 01:19:23;;;;;;;12.65;6.97;;;2.60;99.90;;;;;;5000669;28;20077;-65
2021/11/10 01:21:51;;;;;;;13.23;7.25;;;2.60;99.90;;;;;;5009779;28;20152;-66
2021/11/10 01:24:20;;;;;;;10.18;6.75;;;2.60;99.90;;;;;;5024289;28;20484;-66
2021/11/10 01:26:47;;;;;;;13.40;6.50;;;2.60;99.90;;;;;;5008267;28;20042;-65
2021/11/10 01:29:15;;;;;;;11.45;6.75;;;2.70;99.90;;;;;;5018509;28;20511;-65
2021/11/10 01:31:43;;;;;;;14.45;6.80;;;2.70;99.90;;;;;;5011252;28;20045;-65
2021/11/10 01:34:10;;;;;;;12.98;6.95;;;2.60;99.90;;;;;;5008916;28;20246;-66
2021/11/10 01:36:41;;;;;;;17.73;6.97;;;2.60;99.90;;;;;;5025068;28;20075;-66
2021/11/10 01:39:10;;;;;;;13.77;7.03;;;2.60;99.90;;;;;;4992071;28;20048;-65
2021/11/10 01:41:50;;;;;;;11.80;6.82;;;2.60;99.90;;;;;;5007245;28;20417;-65
2021/11/10 01:44:24;;;;;;;15.82;6.97;;;2.60;99.90;;;;;;5009927;28;20511;-66
2021/11/10 01:46:54;;;;;;;10.05;6.40;;;2.60;99.90;;;;;;5007341;28;20145;-66
2021/11/10 01:49:28;;;;;;;10.98;6.78;;;2.60;99.90;;;;;;5004990;28;20047;-65
2021/11/10 01:51:59;;;;;;;12.65;6.88;;;2.60;99.90;;;;;;5005136;28;20038;-65
2021/11/10 01:54:29;;;;;;;13.27;6.97;;;2.60;99.90;;;;;;5013628;28;20045;-66
2021/11/10 01:56:58;;;;;;;16.38;6.78;;;2.60;99.90;;;;;;4995112;28;20053;-66
2021/11/10 01:59:43;;;;;;;13.95;7.53;;;2.60;99.90;;;;;;5013047;28;20096;-66
2021/11/10 02:02:20;;;;;;;9.73;6.28;;;2.50;99.90;;;;;;5005185;28;20050;-65
2021/11/10 02:04:53;;;;;;;13.40;7.70;;;2.60;99.90;;;;;;5008843;28;20420;-65
2021/11/10 02:07:27;;;;;;;13.43;7.40;;;2.60;99.90;;;;;;5013507;28;20044;-65
2021/11/10 02:09:54;;;;;;;15.80;7.63;;;2.60;99.90;;;;;;5013151;28;20511;-66
2021/11/10 02:12:22;;;;;;;12.63;7.57;;;2.60;99.90;;;;;;5011302;28;20408;-66
2021/11/10 02:14:52;;;;;;;13.95;7.68;;;2.60;99.90;;;;;;5011428;28;20037;-65
2021/11/10 02:17:21;;;;;;;14.27;7.75;;;2.50;99.90;;;;;;5012681;28;20563;-66
2021/11/10 02:19:53;;;;;;;13.75;7.72;;;2.60;99.90;;;;;;5011724;28;20053;-66
2021/11/10 02:22:28;;;;;;;13.65;7.45;;;2.60;99.90;;;;;;5011487;28;20045;-65
2021/11/10 02:24:55;;;;;;;13.38;7.20;;;2.50;99.90;;;;;;5012575;28;20405;-65
2021/11/10 02:27:27;;;;;;;13.68;7.35;;;2.50;99.90;;;;;;5020854;28;20042;-66
2021/11/10 02:29:54;;;;;;;14.10;7.15;;;2.50;99.90;;;;;;5023702;28;20049;-65
2021/11/10 02:32:21;;;;;;;13.70;7.50;;;2.50;99.90;;;;;;5011299;28;20107;-65
2021/11/10 02:34:49;;;;;;;13.35;7.25;;;2.50;99.90;;;;;;5011686;28;20125;-66
2021/11/10 02:37:19;;;;;;;11.93;7.05;;;2.50;99.90;;;;;;5008699;28;20050;-65
2021/11/10 02:39:48;;;;;;;11.57;6.40;;;2.50;99.90;;;;;;4999173;28;20053;-65
2021/11/10 02:42:18;;;;;;;13.63;6.78;;;2.50;99.90;;;;;;5005837;28;20042;-65
2021/11/10 02:44:50;;;;;;;13.70;6.35;;;2.40;99.90;;;;;;5004690;28;20046;-66
2021/11/10 02:47:18;;;;;;;13.20;7.25;;;2.40;99.90;;;;;;5010422;28;20374;-66
2021/11/10 02:49:46;;;;;;;12.52;6.63;;;2.40;99.90;;;;;;5012773;28;20049;-65
2021/11/10 02:52:16;;;;;;;13.50;6.47;;;2.40;99.90;;;;;;5012086;28;20042;-65
2021/11/10 02:54:46;;;;;;;14.18;6.88;;;2.30;99.90;;;;;;5011499;28;20046;-65
2021/11/10 02:57:14;;;;;;;13.00;6.80;;;2.30;99.90;;;;;;5007342;28;20741;-66
2021/11/10 02:59:42;;;;;;;11.40;6.68;;;2.30;99.90;;;;;;5012674;28;20050;-65
2021/11/10 03:02:10;;;;;;;12.73;6.53;;;2.20;99.90;;;;;;4997546;28;20128;-66
2021/11/10 03:04:44;;;;;;;13.00;6.47;;;2.20;99.90;;;;;;5009361;28;20046;-65
2021/11/10 03:07:13;;;;;;;13.55;6.88;;;2.20;99.90;;;;;;5025938;28;20486;-65
2021/11/10 03:09:42;;;;;;;12.68;6.32;;;2.10;99.90;;;;;;5010759;28;20061;-65
2021/11/10 03:12:17;;;;;;;12.70;6.70;;;2.10;99.90;;;;;;5007762;28;20035;-65
2021/11/10 03:14:46;;;;;;;13.68;6.53;;;2.10;99.90;;;;;;4999997;28;20044;-65
2021/11/10 03:17:18;;;;;;;14.70;6.55;;;2.10;99.90;;;;;;5013256;28;20054;-65
2021/11/10 03:19:47;;;;;;;14.10;6.95;;;2.10;99.90;;;;;;5010301;28;20503;-66
2021/11/10 03:22:17;;;;;;;11.75;6.93;;;2.10;99.90;;;;;;5009702;28;20041;-66
2021/11/10 03:24:49;;;;;;;15.40;7.82;;;2.10;99.90;;;;;;5009439;28;20048;-66
2021/11/10 03:27:22;;;;;;;12.25;7.05;;;2.10;99.90;;;;;;5005976;28;20046;-66
2021/11/10 03:29:52;;;;;;;12.05;7.07;;;2.00;99.90;;;;;;5010565;28;20046;-66
2021/11/10 03:32:25;;;;;;;12.23;6.78;;;2.00;99.90;;;;;;5009926;28;20045;-66
2021/11/10 03:34:54;;;;;;;11.90;6.78;;;2.00;99.90;;;;;;5027165;28;20412;-66
2021/11/10 03:37:31;;;;;;;11.93;6.63;;;2.10;99.90;;;;;;5017323;28;20057;-66
2021/11/10 03:39:59;;;;;;;12.13;7.22;;;2.10;99.90;;;;;;5004635;28;20046;-66
2021/11/10 03:42:28;;;;;;;13.65;7.00;;;2.00;99.90;;;;;;4996633;28;20050;-65
2021/11/10 03:44:55;;;;;;;11.75;6.57;;;2.00;99.90;;;;;;5007119;28;20045;-66
2021/11/10 03:47:23;;;;;;;12.82;7.07;;;2.00;99.90;;;;;;5008415;28;20042;-66
2021/11/10 03:49:51;;;;;;;12.65;7.30;;;2.10;99.90;;;;;;4996774;28;20038;-66
2021/11/10 03:52:19;;;;;;;13.13;7.43;;;2.10;99.90;;;;;;5002338;28;20436;-66
2021/11/10 03:54:47;;;;;;;13.82;7.38;;;2.10;99.90;;;;;;5011956;28;20458;-66
2021/11/10 03:57:15;;;;;;;12.50;6.30;;;2.10;99.90;;;;;;5021050;28;20037;-66
2021/11/10 03:59:43;;;;;;;10.57;6.65;;;2.10;99.90;;;;;;5010174;28;20398;-66
2021/11/10 04:02:14;;;;;;;11.95;6.72;;;2.10;99.90;;;;;;5009882;28;20050;-66
2021/11/10 04:04:42;;;;;;;10.73;6.32;;;2.10;99.90;;;;;;5008228;28;20493;-66
2021/11/10 04:07:11;;;;;;;11.90;6.88;;;2.00;99.90;;;;;;5009758;28;20033;-66
2021/11/10 04:09:39;;;;;;;14.43;7.05;;;2.10;99.90;;;;;;5004178;28;20069;-66
2021/11/10 04:12:10;;;;;;;14.02;7.43;;;2.10;99.90;;;;;;4995764;28;20497;-66
2021/11/10 04:14:40;;;;;;;13.52;6.68;;;2.00;99.90;;;;;;5006179;28;20038;-66
2021/11/10 04:17:09;;;;;;;11.85;6.65;;;2.00;99.90;;;;;;4994327;28;20085;-66
2021/11/10 04:19:39;;;;;;;13.33;7.43;;;2.00;99.90;;;;;;5005066;28;20108;-66
2021/11/10 04:22:07;;;;;;;11.70;6.53;;;2.10;99.90;;;;;;5009846;28;20048;-66
2021/11/10 04:24:35;;;;;;;12.82;6.90;;;2.10;99.90;;;;;;5010834;28;20045;-66
2021/11/10 04:27:03;;;;;;;12.68;7.38;;;2.00;99.90;;;;;;5006632;28;20508;-65
2021/11/10 04:29:31;;;;;;;15.98;8.07;;;2.00;99.90;;;;;;5013236;28;20073;-65
2021/11/10 04:31:59;;;;;;;13.07;7.53;;;2.00;99.90;;;;;;5007734;28;20037;-66
2021/11/10 04:34:28;;;;;;;12.77;6.82;;;2.00;99.90;;;;;;5024115;28;20049;-65
2021/11/10 04:36:59;;;;;;;14.93;7.47;;;2.00;99.90;;;;;;5005273;28;20037;-66
2021/11/10 04:39:30;;;;;;;12.65;6.72;;;2.00;99.90;;;;;;5009748;28;20050;-66
2021/11/10 04:41:58;;;;;;;12.10;6.85;;;2.00;99.90;;;;;;5015034;28;20038;-66
2021/11/10 04:44:26;;;;;;;12.82;7.45;;;1.90;99.90;;;;;;5024598;28;20149;-65
2021/11/10 04:46:56;;;;;;;12.15;7.07;;;2.00;99.90;;;;;;5007526;28;20575;-66
2021/11/10 04:49:24;;;;;;;14.07;7.55;;;2.00;99.90;;;;;;4988827;28;20065;-66
2021/11/10 04:51:52;;;;;;;13.90;7.50;;;1.90;99.90;;;;;;5006183;28;20527;-66
2021/11/10 04:54:20;;;;;;;12.80;7.47;;;1.90;99.90;;;;;;5010426;28;20073;-66
2021/11/10 04:56:48;;;;;;;13.52;7.20;;;1.80;99.90;;;;;;5010919;28;20068;-65
2021/11/10 04:59:15;;;;;;;18.27;8.75;;;1.80;99.90;;;;;;5008505;28;20092;-65
2021/11/10 05:01:44;;;;;;;16.80;8.30;;;1.70;99.90;;;;;;5009124;28;20096;-66
2021/11/10 05:04:12;;;;;;;17.10;8.88;;;1.70;99.90;;;;;;5006096;28;20050;-66
2021/11/10 05:06:42;;;;;;;18.25;9.52;;;1.70;99.90;;;;;;5009014;28;20053;-66
2021/11/10 05:09:10;;;;;;;18.60;10.90;;;1.70;99.90;;;;;;5008788;28;20049;-66
2021/11/10 05:11:38;;;;;;;23.85;13.48;;;1.60;99.90;;;;;;5009106;28;20125;-65
2021/11/10 05:14:05;;;;;;;22.17;12.00;;;1.60;99.90;;;;;;5007405;28;20053;-66
2021/11/10 05:16:33;;;;;;;21.88;12.43;;;1.60;99.90;;;;;;5009141;28;20060;-66
2021/11/10 05:19:06;;;;;;;25.52;11.85;;;1.60;99.90;;;;;;5008296;28;20050;-66
2021/11/10 05:21:34;;;;;;;21.73;11.35;;;1.50;99.90;;;;;;4979559;28;20108;-66
2021/11/10 05:24:02;;;;;;;23.27;12.40;;;1.50;99.90;;;;;;5001273;28;20133;-67
2021/11/10 05:26:30;;;;;;;22.55;11.73;;;1.50;99.90;;;;;;5011323;28;20404;-66
2021/11/10 05:28:58;;;;;;;19.45;11.25;;;1.50;99.90;;;;;;5020935;28;20034;-67
2021/11/10 05:31:25;;;;;;;18.05;10.15;;;1.50;99.90;;;;;;5018325;28;20449;-67
2021/11/10 05:33:54;;;;;;;18.40;10.35;;;1.50;99.90;;;;;;5013541;28;20073;-66
2021/11/10 05:36:21;;;;;;;16.13;10.05;;;1.50;99.90;;;;;;5006836;28;20050;-67
2021/11/10 05:38:49;;;;;;;16.35;8.82;;;1.50;99.90;;;;;;5006287;28;20115;-66
2021/11/10 05:41:17;;;;;;;14.10;8.20;;;1.50;99.90;;;;;;5012436;28;20132;-66
2021/11/10 05:43:44;;;;;;;14.25;8.18;;;1.50;99.90;;;;;;5013223;28;20071;-66
2021/11/10 05:46:12;;;;;;;14.77;8.70;;;1.50;99.90;;;;;;5013927;28;20049;-66
2021/11/10 05:48:39;;;;;;;15.93;8.40;;;1.50;99.90;;;;;;5011002;28;20042;-66
2021/11/10 05:51:06;;;;;;;16.92;10.05;;;1.50;99.90;;;;;;5009230;28;20489;-65
2021/11/10 05:53:34;;;;;;;19.05;10.25;;;1.50;99.90;;;;;;4998904;28;20035;-66
2021/11/10 05:56:01;;;;;;;14.57;9.30;;;1.60;99.90;;;;;;4999184;28;20038;-66
2021/11/10 05:58:32;;;;;;;17.88;10.15;;;1.60;99.90;;;;;;5012388;28;20066;-67
2021/11/10 06:01:00;;;;;;;21.00;10.10;;;1.70;99.90;;;;;;5005436;28;20046;-66
2021/11/10 06:03:31;;;;;;;16.65;9.85;;;1.60;99.90;;;;;;5005276;28;20034;-66
2021/11/10 06:05:58;;;;;;;18.85;9.85;;;1.70;99.90;;;;;;5013189;28;20057;-66
2021/11/10 06:08:25;;;;;;;13.85;8.60;;;1.70;99.90;;;;;;5011027;28;20046;-66
2021/11/10 06:11:09;;;;;;;15.63;8.75;;;1.70;99.90;;;;;;5009688;28;20049;-66
2021/11/10 06:13:37;;;;;;;16.83;8.80;;;1.80;99.90;;;;;;5004183;28;20045;-66
2021/11/10 06:16:06;;;;;;;14.25;7.93;;;1.70;99.90;;;;;;5012951;28;20124;-66
2021/11/10 06:18:34;;;;;;;14.70;8.23;;;1.80;99.90;;;;;;5005639;28;20485;-66
2021/11/10 06:21:02;;;;;;;16.30;8.35;;;1.80;99.90;;;;;;5013171;28;20045;-66
2021/11/10 06:23:30;;;;;;;14.88;7.72;;;1.80;99.90;;;;;;5005371;28;20050;-66
2021/11/10 06:25:57;;;;;;;13.70;7.97;;;1.80;99.90;;;;;;5012016;28;20046;-66
2021/11/10 06:28:25;;;;;;;17.08;9.00;;;1.80;99.90;;;;;;5014044;28;20132;-66
2021/11/10 06:30:52;;;;;;;18.45;8.98;;;1.80;99.90;;;;;;5014019;28;20528;-68
2021/11/10 06:33:20;;;;;;;15.55;8.63;;;1.80;99.90;;;;;;5004400;28;20046;-66
2021/11/10 06:35:47;;;;;;;15.63;9.13;;;1.80;99.90;;;;;;5002451;28;20042;-66
2021/11/10 06:38:14;;;;;;;14.70;8.57;;;1.90;99.90;;;;;;5004698;28;20030;-66
2021/11/10 06:40:42;;;;;;;16.63;9.30;;;1.90;99.90;;;;;;5001220;28;20061;-66
2021/11/10 06:43:09;;;;;;;16.05;8.88;;;2.00;99.90;;;;;;5000594;28;20042;-66
2021/11/10 06:45:36;;;;;;;15.70;8.10;;;2.00;99.90;;;;;;4999463;28;20065;-66
2021/11/10 06:48:04;;;;;;;13.13;7.70;;;2.10;99.90;;;;;;5001372;28;20454;-66
2021/11/10 06:50:33;;;;;;;16.92;9.23;;;2.10;99.90;;;;;;5012826;28;20053;-66
2021/11/10 06:53:00;;;;;;;15.23;8.00;;;2.10;99.90;;;;;;5003416;28;20046;-66
2021/11/10 06:55:27;;;;;;;18.20;8.80;;;2.20;99.90;;;;;;5006962;28;20045;-66
2021/11/10 06:57:55;;;;;;;15.38;8.30;;;2.20;99.90;;;;;;5012970;28;20057;-66
2021/11/10 07:00:23;;;;;;;17.17;8.27;;;2.30;99.90;;;;;;5004432;28;20050;-66
2021/11/10 07:02:50;;;;;;;17.80;8.55;;;2.30;99.90;;;;;;5010413;28;20049;-66
2021/11/10 07:05:18;;;;;;;16.67;8.20;;;2.40;99.90;;;;;;5006463;28;20064;-66
2021/11/10 07:07:45;;;;;;;16.30;8.50;;;2.50;99.90;;;;;;5004319;28;20046;-66
2021/11/10 07:10:12;;;;;;;18.10;8.65;;;2.60;99.90;;;;;;5002941;28;20056;-68
2021/11/10 07:12:40;;;;;;;16.15;8.68;;;2.60;99.90;;;;;;5007735;28;20045;-68
2021/11/10 07:15:08;;;;;;;15.07;7.95;;;2.70;99.90;;;;;;5010196;28;20033;-68
2021/11/10 07:17:35;;;;;;;17.42;8.65;;;2.80;99.90;;;;;;5004499;28;20045;-68
2021/11/10 07:20:04;;;;;;;16.05;8.48;;;2.90;99.90;;;;;;5008571;28;20454;-68
2021/11/10 07:22:34;;;;;;;16.27;8.90;;;2.90;99.90;;;;;;5010464;28;20500;-68
2021/11/10 07:25:05;;;;;;;17.58;9.18;;;3.00;99.90;;;;;;5007433;28;20080;-69
2021/11/10 07:27:36;;;;;;;21.10;10.57;;;3.10;99.90;;;;;;5011563;28;20112;-67
2021/11/10 07:30:07;;;;;;;24.50;9.70;;;3.20;99.90;;;;;;5007069;28;20051;-68
2021/11/10 07:32:37;;;;;;;18.00;9.35;;;3.20;99.90;;;;;;5002606;28;20050;-67
2021/11/10 07:35:14;;;;;;;17.95;9.07;;;3.40;99.90;;;;;;5001016;28;20038;-67
2021/11/10 07:37:44;;;;;;;17.08;9.38;;;3.40;99.90;;;;;;5020703;28;20046;-67
2021/11/10 07:40:17;;;;;;;22.17;9.07;;;3.50;99.90;;;;;;5009251;28;20038;-67
2021/11/10 07:42:44;;;;;;;18.35;8.55;;;3.60;99.90;;;;;;5003818;28;20489;-67
2021/11/10 07:45:19;;;;;;;16.55;8.15;;;3.70;99.90;;;;;;4996693;28;20076;-67
2021/11/10 07:47:47;;;;;;;17.67;8.88;;;3.80;99.90;;;;;;5003821;28;20046;-67
2021/11/10 07:50:21;;;;;;;17.35;8.65;;;3.80;99.90;;;;;;4995755;28;20043;-67
2021/11/10 07:52:49;;;;;;;17.63;8.23;;;4.00;99.90;;;;;;4997766;28;20089;-67
2021/11/10 07:55:16;;;;;;;17.02;8.52;;;4.00;99.90;;;;;;5004885;28;20053;-67
2021/11/10 07:57:44;;;;;;;16.40;9.15;;;4.10;99.90;;;;;;5009628;28;20042;-67
2021/11/10 08:00:31;;;;;;;15.07;8.00;;;4.30;99.90;;;;;;4995210;28;20398;-67
2021/11/10 08:02:59;;;;;;;15.07;7.80;;;4.50;99.90;;;;;;5009076;28;20049;-67
2021/11/10 08:05:26;;;;;;;16.40;8.60;;;4.60;99.90;;;;;;5001640;28;20069;-67
2021/11/10 08:07:53;;;;;;;13.73;8.00;;;4.70;99.90;;;;;;5007901;28;20053;-67
2021/11/10 08:10:37;;;;;;;13.10;7.22;;;4.80;99.90;;;;;;5001263;28;20133;-67
2021/11/10 08:13:04;;;;;;;15.05;8.43;;;5.00;99.90;;;;;;5009612;28;20038;-66
2021/11/10 08:15:32;;;;;;;13.95;8.45;;;5.10;99.90;;;;;;5009021;28;20050;-67
2021/11/10 08:17:59;;;;;;;17.30;8.43;;;5.20;99.90;;;;;;5010290;28;20057;-67
2021/11/10 08:20:26;;;;;;;17.05;8.73;;;5.30;99.90;;;;;;5008545;28;20473;-66
2021/11/10 08:22:54;;;;;;;14.52;8.10;;;5.50;99.90;;;;;;5010257;28;20050;-68
2021/11/10 08:25:21;;;;;;;14.75;8.50;;;5.60;99.90;;;;;;5009966;28;20046;-67
2021/11/10 08:27:49;;;;;;;16.40;9.13;;;5.70;99.90;;;;;;5009350;28;20220;-67
2021/11/10 08:30:19;;;;;;;14.18;8.05;;;5.80;99.90;;;;;;5034962;28;20038;-67
2021/11/10 08:32:48;;;;;;;11.68;7.57;;;5.90;99.90;;;;;;5009893;28;20378;-67
2021/11/10 08:35:16;;;;;;;12.75;7.60;;;5.90;99.90;;;;;;5010665;28;20431;-67
2021/11/10 08:37:45;;;;;;;13.32;8.10;;;5.90;99.90;;;;;;5011129;28;20099;-66
2021/11/10 08:40:13;;;;;;;14.45;8.38;;;5.90;99.90;;;;;;5007399;28;20500;-67
2021/11/10 08:42:40;;;;;;;17.60;8.50;;;5.90;99.90;;;;;;5008781;28;20045;-67
2021/11/10 08:45:14;;;;;;;13.13;8.02;;;6.00;99.90;;;;;;5008994;28;20042;-66
2021/11/10 08:47:43;;;;;;;14.50;9.05;;;6.20;99.90;;;;;;5009609;28;20117;-67
2021/11/10 08:50:13;;;;;;;17.90;8.60;;;6.20;99.90;;;;;;5009647;28;20049;-66
2021/11/10 08:52:41;;;;;;;13.90;8.15;;;6.30;99.90;;;;;;5009896;28;20038;-67
2021/11/10 08:55:09;;;;;;;18.23;8.20;;;6.40;99.90;;;;;;5010316;28;20042;-68
2021/11/10 08:57:38;;;;;;;13.88;7.88;;;6.60;99.90;;;;;;5010761;28;20049;-68
2021/11/10 09:00:10;;;;;;;18.50;9.20;;;6.60;99.90;;;;;;5008568;28;20052;-67
2021/11/10 09:02:37;;;;;;;12.75;7.80;;;6.70;99.90;;;;;;5009498;28;20536;-67
2021/11/10 09:05:06;;;;;;;14.73;8.18;;;6.80;99.90;;;;;;5012570;28;20044;-67
2021/11/10 09:07:34;;;;;;;13.90;7.40;;;6.90;99.90;;;;;;5014241;28;20456;-68
2021/11/10 09:10:06;;;;;;;14.13;7.63;;;7.00;99.90;;;;;;5014679;28;20057;-66
2021/11/10 09:12:34;;;;;;;14.70;7.30;;;7.10;99.90;;;;;;5013147;28;20049;-67
2021/11/10 09:15:01;;;;;;;15.20;8.18;;;7.20;99.90;;;;;;5012482;28;20116;-67
2021/11/10 09:17:34;;;;;;;16.67;9.45;;;7.40;99.90;;;;;;5012924;28;20042;-67
2021/11/10 09:20:11;;;;;;;16.08;7.85;;;7.50;99.90;;;;;;5013159;28;20034;-67
2021/11/10 09:22:39;;;;;;;13.52;7.25;;;7.60;99.90;;;;;;5014531;28;20048;-67
2021/11/10 09:25:11;;;;;;;13.75;7.60;;;7.70;99.90;;;;;;5012380;28;20041;-67
2021/11/10 09:27:39;;;;;;;13.82;8.07;;;7.80;99.90;;;;;;5012098;28;20050;-67
2021/11/10 09:30:12;;;;;;;14.38;8.18;;;7.80;99.90;;;;;;5024286;28;20045;-66
2021/11/10 09:32:40;;;;;;;12.90;8.60;;;7.80;99.90;;;;;;5011316;28;20049;-66
2021/11/10 09:35:10;;;;;;;12.88;7.90;;;7.90;99.90;;;;;;5013915;28;20073;-67
2021/11/10 09:37:38;;;;;;;13.82;8.00;;;8.00;99.90;;;;;;5013300;28;20140;-67
2021/11/10 09:40:10;;;;;;;14.82;8.23;;;8.30;99.90;;;;;;5012753;28;20046;-67
2021/11/10 09:42:38;;;;;;;14.77;8.35;;;8.30;99.90;;;;;;5007892;28;20050;-67
2021/11/10 09:45:08;;;;;;;14.05;8.38;;;8.50;99.90;;;;;;4994730;28;20039;-67
2021/11/10 09:47:38;;;;;;;13.00;8.20;;;8.60;99.90;;;;;;5000442;28;20052;-68
2021/11/10 09:50:08;;;;;;;16.65;8.20;;;8.80;99.90;;;;;;5009297;28;20124;-67
2021/11/10 09:52:35;;;;;;;16.77;7.80;;;8.90;99.90;;;;;;5002495;28;20409;-67
2021/11/10 09:55:07;;;;;;;13.82;9.02;;;9.10;99.90;;;;;;5004067;28;20041;-67
2021/11/10 09:57:35;;;;;;;17.40;8.77;;;9.30;99.90;;;;;;5013519;28;20042;-67
2021/11/10 10:00:10;;;;;;;16.25;9.57;;;9.50;99.90;;;;;;5013622;28;20045;-67
2021/11/10 10:02:45;;;;;;;13.68;8.85;;;9.60;99.90;;;;;;5010864;28;20084;-67
2021/11/10 10:05:14;;;;;;;15.25;10.05;;;9.70;99.90;;;;;;5013609;28;20046;-67
2021/11/10 10:07:43;;;;;;;17.15;9.25;;;9.90;99.90;;;;;;5012295;28;20058;-68
2021/11/10 10:10:11;;;;;;;17.08;10.02;;;10.00;99.90;;;;;;5012077;28;20041;-67
2021/11/10 10:12:40;;;;;;;17.00;9.48;;;10.00;99.90;;;;;;5012118;28;20048;-67
2021/11/10 10:15:11;;;;;;;16.48;9.77;;;10.00;99.90;;;;;;5008406;28;20054;-67
2021/11/10 10:17:41;;;;;;;16.73;10.27;;;9.90;99.90;;;;;;5009646;28;20046;-67
2021/11/10 10:20:30;;;;;;;15.65;10.63;;;9.90;99.90;;;;;;5013132;28;20046;-67
2021/11/10 10:23:03;;;;;;;17.20;10.07;;;9.70;99.90;;;;;;5013102;28;20061;-67
2021/11/10 10:25:48;;;;;;;20.50;10.90;;;9.60;99.90;;;;;;5072372;22;20038;-67
2021/11/10 10:28:23;;;;;;;18.17;10.15;;;9.80;99.90;;;;;;5007377;28;20553;-68
2021/11/10 10:31:00;;;;;;;18.73;11.07;;;10.30;99.90;;;;;;5024164;28;20042;-68
2021/11/10 10:33:34;;;;;;;14.70;10.40;;;10.70;99.90;;;;;;5006806;28;20088;-69
2021/11/10 10:36:07;;;;;;;18.08;10.60;;;10.80;99.90;;;;;;5006565;28;20508;-69
2021/11/10 10:38:37;;;;;;;17.77;10.57;;;10.70;99.90;;;;;;5007652;28;20045;-69
2021/11/10 10:41:06;;;;;;;16.33;9.77;;;10.70;99.90;;;;;;5007904;28;20042;-69
2021/11/10 10:44:07;;;;;;;18.08;10.63;;;11.40;99.90;;;;;;5007017;28;20042;-69
2021/11/10 10:46:38;;;;;;;16.33;10.48;;;12.30;99.90;;;;;;4984183;28;20417;-68
2021/11/10 10:49:19;;;;;;;16.10;11.07;;;12.70;99.90;;;;;;4999204;28;20053;-68
2021/11/10 10:51:54;;;;;;;18.00;11.20;;;13.00;99.90;;;;;;4992183;28;20034;-69
2021/11/10 10:54:31;;;;;;;16.38;10.80;;;13.20;99.90;;;;;;4979386;28;20397;-67
2021/11/10 10:57:00;;;;;;;16.48;10.50;;;13.30;99.90;;;;;;4992764;28;20478;-68
2021/11/10 10:59:29;;;;;;;14.30;10.65;;;13.80;99.90;;;;;;4996071;28;20046;-68
2021/11/10 11:01:58;;;;;;;17.88;10.13;;;14.20;99.90;;;;;;5002116;28;20481;-68
2021/11/10 11:04:31;;;;;;;19.95;10.05;;;14.50;99.90;;;;;;4984280;28;20141;-68
2021/11/10 11:07:03;;;;;;;16.48;10.32;;;14.60;99.90;;;;;;4986274;28;20105;-69
2021/11/10 11:09:34;;;;;;;16.67;10.65;;;14.40;99.90;;;;;;4981044;28;20333;-68
2021/11/10 11:12:04;;;;;;;18.55;10.82;;;14.00;99.90;;;;;;4991219;28;20088;-69
2021/11/10 11:17:25;;;;;;;13.38;9.88;;;13.70;99.90;;;;;;4991624;28;20504;-69
2021/11/10 11:20:12;;;;;;;14.40;10.68;;;13.90;99.90;;;;;;4996421;28;20104;-68
2021/11/10 11:22:45;;;;;;;14.55;10.20;;;14.00;99.90;;;;;;4996642;28;20057;-68
2021/11/10 11:25:15;;;;;;;15.60;10.63;;;13.70;99.90;;;;;;5002777;28;20033;-68
2021/11/10 11:28:04;;;;;;;15.57;10.38;;;13.50;99.90;;;;;;5002475;28;20042;-69
2021/11/10 11:30:32;;;;;;;19.15;10.98;;;13.30;99.90;;;;;;4998826;28;20042;-68
2021/11/10 11:33:02;;;;;;;16.98;11.43;;;13.10;99.90;;;;;;4999860;28;20038;-69
2021/11/10 11:35:32;;;;;;;13.75;9.95;;;12.70;99.90;;;;;;5004682;28;20050;-69
2021/11/10 11:38:08;;;;;;;22.92;11.88;;;12.70;99.90;;;;;;4997917;28;20512;-69
2021/11/10 11:40:37;;;;;;;15.05;11.23;;;12.60;99.90;;;;;;4992859;28;20591;-69
2021/11/10 11:43:07;;;;;;;18.38;11.52;;;13.10;99.90;;;;;;4995114;28;20042;-69
2021/11/10 11:45:39;;;;;;;17.75;11.63;;;13.60;99.90;;;;;;4995007;28;20068;-69
2021/11/10 11:48:08;;;;;;;17.63;10.77;;;13.50;99.90;;;;;;4997427;28;20064;-68
2021/11/10 11:50:41;;;;;;;15.88;10.60;;;13.70;99.90;;;;;;4997489;28;20556;-69
2021/11/10 11:53:09;;;;;;;16.20;11.43;;;14.40;99.90;;;;;;4995160;28;20100;-69
2021/11/10 11:55:41;;;;;;;14.40;10.13;;;14.60;99.90;;;;;;4996464;28;20485;-69
2021/11/10 11:58:14;;;;;;;15.65;10.98;;;14.30;99.90;;;;;;4979796;28;20049;-68
2021/11/10 12:01:00;;;;;;;19.75;11.45;;;14.10;99.90;;;;;;4992983;28;20041;-69
2021/11/10 12:03:32;;;;;;;16.23;11.02;;;13.60;99.90;;;;;;4982007;28;20058;-68
2021/11/10 12:06:03;;;;;;;17.92;10.88;;;13.10;99.90;;;;;;5009211;28;20035;-68
2021/11/10 12:08:46;;;;;;;14.13;9.55;;;12.70;99.90;;;;;;4991463;28;20050;-69
2021/11/10 12:11:20;;;;;;;21.15;11.82;;;12.40;99.90;;;;;;4992880;28;20042;-68
2021/11/10 12:14:14;;;;;;;16.92;11.27;;;12.10;99.90;;;;;;4990845;28;20480;-68
2021/11/10 12:17:01;;;;;;;16.75;10.73;;;11.80;99.90;;;;;;4989975;28;20046;-68
2021/11/10 12:19:39;;;;;;;17.80;11.85;;;11.80;99.90;;;;;;4991578;28;20497;-68
2021/11/10 12:22:11;;;;;;;21.70;13.60;;;11.80;99.90;;;;;;4992697;28;20042;-69
2021/11/10 12:24:42;;;;;;;;;;;12.00;99.90;;;;;;4994506;28;20057;-68
2021/11/10 12:27:32;;;;;;;17.58;10.90;;;12.10;99.90;;;;;;4990961;28;19958;-70
2021/11/10 12:30:18;;;;;;;18.58;11.18;;;12.20;99.90;;;;;;4989776;28;20038;-69
2021/11/10 12:32:50;;;;;;;17.73;11.23;;;12.70;99.90;;;;;;4991829;28;20073;-68
2021/11/10 12:35:28;;;;;;;14.35;10.25;;;13.40;99.90;;;;;;4991073;28;20449;-68
2021/11/10 12:37:59;;;;;;;14.75;9.98;;;13.80;99.90;;;;;;4991345;28;20118;-68
2021/11/10 12:40:28;;;;;;;16.20;10.27;;;14.20;99.90;;;;;;5002964;28;20054;-68
2021/11/10 12:43:01;;;;;;;13.20;10.43;;;14.30;99.90;;;;;;4990747;28;20051;-68
2021/11/10 12:45:30;;;;;;;19.42;12.40;;;14.50;99.90;;;;;;4982343;28;20169;-69
2021/11/10 12:48:06;;;;;;;18.30;11.48;;;14.50;99.90;;;;;;4983465;28;20042;-69
2021/11/10 12:50:36;;;;;;;15.60;10.50;;;14.60;99.90;;;;;;4978012;28;20057;-69
2021/11/10 12:53:08;;;;;;;15.27;10.93;;;14.60;99.90;;;;;;4983693;28;20038;-68
2021/11/10 12:55:47;;;;;;;16.33;10.90;;;14.50;99.90;;;;;;4989665;28;20473;-68
2021/11/10 12:58:18;;;;;;;17.20;11.23;;;14.10;99.90;;;;;;4989909;28;20480;-69
2021/11/10 13:00:46;;;;;;;15.88;11.77;;;14.00;99.90;;;;;;4988737;28;20046;-69